This is the latest recevied weather packets stored in our database for station/object ON5MM-5. If no packets are shown the sender has not sent any weather packets the latest 10 day(s).
| Time | Temp. | Humidity | Pressure | Rain* | Wind** | Luminosity | Snow |
|---|---|---|---|---|---|---|---|
| 1777367102 | 16.11° C | 42% | 1021.3 hPa | 0 mm | 1.79 m/s, ° | - | - |
| 1777366803 | 16.11° C | 42% | 1021.3 hPa | 0 mm | 1.79 m/s, ° | - | - |
| 1777366502 | 15.56° C | 43% | 1021.3 hPa | 0 mm | 1.34 m/s, ° | - | - |
| 1777366202 | 15.56° C | 44% | 1021.1 hPa | 0 mm | 1.34 m/s, ° | - | - |
| 1777365902 | 15° C | 44% | 1021.2 hPa | 0 mm | 1.79 m/s, ° | - | - |
| 1777365602 | 15° C | 43% | 1021.2 hPa | 0 mm | 1.79 m/s, ° | - | - |
| 1777365302 | 15.56° C | 43% | 1021.2 hPa | 0 mm | 1.34 m/s, ° | - | - |
| 1777365002 | 15° C | 43% | 1021.2 hPa | 0 mm | 2.24 m/s, ° | - | - |
| 1777364703 | 15° C | 43% | 1021.1 hPa | 0 mm | 1.79 m/s, ° | - | - |
| 1777364402 | 15° C | 44% | 1021.2 hPa | 0 mm | 1.79 m/s, ° | - | - |
| 1777364102 | 15° C | 44% | 1021.1 hPa | 0 mm | 1.34 m/s, ° | - | - |
| 1777363802 | 15° C | 44% | 1021.2 hPa | 0 mm | 2.24 m/s, ° | - | - |
| 1777363502 | 15° C | 45% | 1021.1 hPa | 0 mm | 1.34 m/s, ° | - | - |
| 1777363202 | 15° C | 45% | 1021.1 hPa | 0 mm | 1.34 m/s, ° | - | - |
| 1777362903 | 14.44° C | 45% | 1021.1 hPa | 0 mm | 1.34 m/s, ° | - | - |
| 1777362602 | 13.89° C | 47% | 1021.1 hPa | 0 mm | 0.89 m/s, ° | - | - |
| 1777362303 | 13.89° C | 47% | 1021.1 hPa | 0 mm | 1.79 m/s, ° | - | - |
| 1777362003 | 13.89° C | 49% | 1021 hPa | 0 mm | 0.89 m/s, ° | - | - |
| 1777361702 | 13.33° C | 49% | 1021 hPa | 0 mm | 1.79 m/s, ° | - | - |
| 1777361402 | 13.33° C | 50% | 1021 hPa | 0 mm | 1.34 m/s, ° | - | - |
| 1777361103 | 12.78° C | 51% | 1021 hPa | 0 mm | 1.79 m/s, ° | - | - |
| 1777360803 | 12.78° C | 52% | 1021 hPa | 0 mm | 0.89 m/s, ° | - | - |
| 1777360503 | 12.22° C | 55% | 1021 hPa | 0 mm | 0 m/s | - | - |
| 1777360202 | 11.67° C | 53% | 1021 hPa | 0 mm | 1.34 m/s, ° | - | - |
| 1777359902 | 11.11° C | 55% | 1021 hPa | 0 mm | 1.34 m/s, ° | - | - |
* Rain latest hour (hover to see other rain measurements)
** Current wind speed in m/s (hover to see current wind gust speed)